createdAt,value
2019-04-03T00:08:01.533Z,9.3
2019-04-03T00:13:01.671Z,9.3
2019-04-03T00:18:01.456Z,8.5
2019-04-03T00:23:01.758Z,8.5
2019-04-03T00:28:01.472Z,8.2
2019-04-03T00:33:06.582Z,8.2
2019-04-03T00:38:01.598Z,8.3
2019-04-03T00:43:01.757Z,8.3
2019-04-03T00:48:01.532Z,8.6
2019-04-03T00:53:01.530Z,8.4
2019-04-03T01:03:01.643Z,8.3
2019-04-03T01:08:01.436Z,8.6
2019-04-03T01:18:04.230Z,8.5
2019-04-03T01:23:01.743Z,8.6
2019-04-03T01:28:01.438Z,9.0
2019-04-03T01:33:01.541Z,9.0
2019-04-03T01:38:02.473Z,8.5
2019-04-03T01:43:01.555Z,8.3
2019-04-03T01:48:01.931Z,7.9
2019-04-03T01:58:01.461Z,7.8
2019-04-03T02:03:10.894Z,8.1
2019-04-03T02:08:01.417Z,8.1
2019-04-03T02:13:01.578Z,8.2
2019-04-03T02:18:01.449Z,8.2
2019-04-03T02:23:01.627Z,8.3
2019-04-03T02:38:01.862Z,7.6
2019-04-03T02:43:01.575Z,7.7
2019-04-03T02:48:07.240Z,7.4
2019-04-03T02:53:01.657Z,7.5
2019-04-03T02:58:02.707Z,7.6
2019-04-03T03:03:01.796Z,7.6
2019-04-03T03:08:01.414Z,7.2
2019-04-03T03:18:01.875Z,7.1
2019-04-03T03:23:01.530Z,7.1
2019-04-03T03:28:01.486Z,7.5
2019-04-03T03:38:01.576Z,7.1
2019-04-03T03:44:01.610Z,7.2
2019-04-03T03:49:01.664Z,7.0
2019-04-03T03:54:01.511Z,6.9
2019-04-03T03:59:01.381Z,6.0
2019-04-03T04:04:02.229Z,6.0
2019-04-03T04:09:01.680Z,5.7
2019-04-03T04:14:02.753Z,5.8
2019-04-03T04:19:01.434Z,5.1
2019-04-03T04:24:01.582Z,5.1
2019-04-03T04:29:01.728Z,4.8
2019-04-03T04:34:01.890Z,4.8
2019-04-03T04:39:01.437Z,4.9
2019-04-03T04:44:01.693Z,4.9
2019-04-03T04:49:01.402Z,4.6
2019-04-03T04:54:01.477Z,4.6
2019-04-03T04:59:01.521Z,4.5
2019-04-03T05:04:01.776Z,4.4
2019-04-03T05:09:06.444Z,4.8
2019-04-03T05:14:01.698Z,4.9
2019-04-03T05:19:19.028Z,4.5
2019-04-03T05:24:14.010Z,4.6
2019-04-03T05:29:01.432Z,4.4
2019-04-03T05:34:01.541Z,4.5
2019-04-03T05:39:03.723Z,3.6
2019-04-03T05:44:03.301Z,3.7
2019-04-03T05:49:01.462Z,3.4
2019-04-03T05:54:01.507Z,3.5
2019-04-03T05:59:03.378Z,3.4
2019-04-03T06:04:02.306Z,3.4
2019-04-03T06:09:01.673Z,3.4
2019-04-03T06:14:01.764Z,3.5
2019-04-03T06:19:01.405Z,3.8
2019-04-03T06:24:01.572Z,3.8
2019-04-03T06:29:01.484Z,4.2
2019-04-03T06:34:01.412Z,4.2
2019-04-03T06:39:01.445Z,5.0
2019-04-03T06:44:01.971Z,5.0
2019-04-03T06:49:01.804Z,5.8
2019-04-03T06:54:01.676Z,5.7
2019-04-03T06:59:01.967Z,6.4
2019-04-03T07:04:01.724Z,6.4
2019-04-03T07:09:06.407Z,6.9
2019-04-03T07:14:01.485Z,6.9
2019-04-03T07:19:01.644Z,7.5
2019-04-03T07:24:01.698Z,7.4
2019-04-03T07:29:01.612Z,8.3
2019-04-03T07:34:04.119Z,8.3
2019-04-03T07:39:01.440Z,9.5
2019-04-03T07:44:01.456Z,9.6
2019-04-03T07:49:01.649Z,10.3
2019-04-03T07:54:05.137Z,10.4
2019-04-03T07:59:04.777Z,9.9
2019-04-03T08:04:01.569Z,9.9
2019-04-03T08:09:10.558Z,10.3
2019-04-03T08:14:01.509Z,10.2
2019-04-03T08:19:01.697Z,12.3
2019-04-03T08:24:01.760Z,12.1
2019-04-03T08:29:02.885Z,13.0
2019-04-03T08:34:18.841Z,13.0
2019-04-03T08:39:01.561Z,14.1
2019-04-03T08:44:09.040Z,14.0
2019-04-03T08:49:01.749Z,16.1
2019-04-03T08:54:01.517Z,16.0
2019-04-03T08:59:01.692Z,15.5
2019-04-03T09:04:01.635Z,15.4
2019-04-03T09:09:01.536Z,15.8
2019-04-03T09:14:01.927Z,15.6
2019-04-03T09:19:01.572Z,15.7
2019-04-03T09:24:01.574Z,15.7
2019-04-03T09:29:01.434Z,16.5
2019-04-03T09:34:01.448Z,16.3
2019-04-03T09:39:01.818Z,16.3
2019-04-03T09:44:01.576Z,16.2
2019-04-03T09:49:01.596Z,17.1
2019-04-03T09:54:01.796Z,17.0
2019-04-03T10:04:02.713Z,16.6
2019-04-03T10:09:01.436Z,15.8
2019-04-03T10:14:01.551Z,15.9
2019-04-03T10:24:02.515Z,16.8
2019-04-03T10:29:01.642Z,16.6
2019-04-03T10:44:01.843Z,16.7
2019-04-03T10:50:05.870Z,17.2
2019-04-03T10:55:01.736Z,17.1
2019-04-03T11:00:01.417Z,15.8
2019-04-03T11:05:02.001Z,15.4
2019-04-03T11:10:01.534Z,12.1
2019-04-03T11:15:02.026Z,12.3
2019-04-03T11:20:02.063Z,9.2
2019-04-03T11:25:02.115Z,9.2
2019-04-03T11:30:02.506Z,7.0
2019-04-03T11:35:01.870Z,7.0
2019-04-03T11:40:06.402Z,5.7
2019-04-03T11:45:05.690Z,5.5
2019-04-03T11:50:01.455Z,5.6
2019-04-03T11:55:01.671Z,5.6
2019-04-03T12:00:01.466Z,6.9
2019-04-03T12:05:02.017Z,6.7
2019-04-03T12:10:04.966Z,6.9
2019-04-03T12:15:01.453Z,6.8
2019-04-03T12:20:01.448Z,5.6
2019-04-03T12:25:02.029Z,5.5
2019-04-03T12:30:01.795Z,3.7
2019-04-03T12:35:11.726Z,3.7
2019-04-03T12:40:06.399Z,2.0
2019-04-03T12:45:06.536Z,2.0
2019-04-03T12:50:02.053Z,1.0
2019-04-03T12:55:01.849Z,1.0
2019-04-03T13:00:01.503Z,1.0
2019-04-03T13:05:07.864Z,1.0
2019-04-03T13:10:02.087Z,1.0
2019-04-03T13:15:06.861Z,0.9
2019-04-03T13:25:02.013Z,0.9
2019-04-03T13:30:01.890Z,0.9
2019-04-03T13:35:06.436Z,0.9
2019-04-03T13:45:01.693Z,0.9
2019-04-03T13:50:03.896Z,0.8
2019-04-03T14:00:23.722Z,0.8
2019-04-03T14:15:05.754Z,0.8
2019-04-03T14:20:07.166Z,0.8
2019-04-03T14:30:02.047Z,0.8
2019-04-03T14:45:01.671Z,0.8
2019-04-03T15:15:01.735Z,0.8
2019-04-03T15:20:01.672Z,0.9
2019-04-03T15:25:01.773Z,0.9
2019-04-03T15:30:01.382Z,1.0
2019-04-03T15:35:02.220Z,1.1
2019-04-03T15:40:01.826Z,1.1
2019-04-03T15:45:01.545Z,1.1
2019-04-03T15:55:05.709Z,1.1
2019-04-03T16:00:04.370Z,1.1
2019-04-03T16:05:01.481Z,1.0
2019-04-03T16:10:01.451Z,0.9
2019-04-03T16:15:01.518Z,0.9
2019-04-03T16:21:01.989Z,0.9
2019-04-03T16:31:01.631Z,0.9
2019-04-03T16:36:01.481Z,1.0
2019-04-03T16:41:01.618Z,1.1
2019-04-03T16:46:01.565Z,1.1
2019-04-03T16:51:01.878Z,1.2
2019-04-03T16:56:01.582Z,1.2
2019-04-03T17:11:06.836Z,1.2
2019-04-03T17:26:01.562Z,1.3
2019-04-03T17:41:01.575Z,1.3
2019-04-03T17:47:01.543Z,1.3
2019-04-03T17:52:05.681Z,1.3
2019-04-03T17:57:01.542Z,1.3
2019-04-03T18:12:01.411Z,1.3
2019-04-03T18:27:06.227Z,1.3
2019-04-03T18:42:01.575Z,1.4
2019-04-03T18:57:01.489Z,1.4
2019-04-03T19:02:05.573Z,1.3
2019-04-03T19:08:14.002Z,1.3
2019-04-03T19:23:07.706Z,1.3
2019-04-03T19:28:04.767Z,1.3
2019-04-03T19:43:01.509Z,1.3
2019-04-03T19:53:01.582Z,1.3
2019-04-03T19:58:01.391Z,1.3
2019-04-03T20:03:01.538Z,1.3
2019-04-03T20:08:01.427Z,1.3
2019-04-03T20:23:01.449Z,1.4
2019-04-03T20:28:01.946Z,1.4
2019-04-03T20:33:01.613Z,1.4
2019-04-03T20:48:01.499Z,1.4
2019-04-03T20:58:01.542Z,1.4
2019-04-03T21:03:01.584Z,1.4
2019-04-03T21:13:01.543Z,1.4
2019-04-03T21:23:04.099Z,1.4
2019-04-03T21:38:01.539Z,1.4
2019-04-03T21:53:02.519Z,1.4
2019-04-03T22:08:01.565Z,1.4
2019-04-03T22:13:01.411Z,1.5
2019-04-03T22:28:01.605Z,1.4
2019-04-03T22:43:01.438Z,1.5
2019-04-03T22:59:01.474Z,1.5
2019-04-03T23:14:01.513Z,1.5
2019-04-03T23:24:01.575Z,1.5
2019-04-03T23:39:01.539Z,1.5
2019-04-03T23:44:01.484Z,1.5
2019-04-03T23:59:01.706Z,1.5
